createdAt,value
2023-05-16T00:00:02.780Z,989.16
2023-05-16T00:01:04.528Z,989.15
2023-05-16T00:03:56.329Z,989.13
2023-05-16T00:04:57.906Z,989.1
2023-05-16T00:06:00.317Z,989.14
2023-05-16T00:07:02.056Z,989.13
2023-05-16T00:08:03.784Z,989.06
2023-05-16T00:09:05.509Z,989.07
2023-05-16T00:10:07.274Z,989.02
2023-05-16T00:11:08.977Z,989.09
2023-05-16T00:12:10.709Z,989.12
2023-05-16T00:13:12.455Z,989.11
2023-05-16T00:14:14.176Z,989.07
2023-05-16T00:15:15.904Z,989.07
2023-05-16T00:16:17.699Z,989.07
2023-05-16T00:17:19.382Z,989.09
2023-05-16T00:18:21.148Z,989.06
2023-05-16T00:19:22.983Z,989.05
2023-05-16T00:20:24.750Z,989.05
2023-05-16T00:21:26.328Z,989.03
2023-05-16T00:22:28.037Z,989.01
2023-05-16T00:23:29.784Z,989.03
2023-05-16T00:24:31.509Z,988.99
2023-05-16T00:25:33.233Z,989.03
2023-05-16T00:26:35.034Z,988.98
2023-05-16T00:27:37.054Z,988.97
2023-05-16T00:28:38.449Z,988.96
2023-05-16T00:29:40.258Z,988.99
2023-05-16T00:30:41.926Z,988.98
2023-05-16T00:31:43.657Z,989.04
2023-05-16T00:32:45.490Z,989
2023-05-16T00:33:47.125Z,989.02
2023-05-16T00:34:48.913Z,989.02
2023-05-16T00:35:50.594Z,989.01
2023-05-16T00:36:52.314Z,989.01
2023-05-16T00:37:54.054Z,989.05
2023-05-16T00:38:55.782Z,989.03
2023-05-16T00:39:57.513Z,989
2023-05-16T00:40:59.240Z,989.01
2023-05-16T00:42:01.116Z,989.01
2023-05-16T00:43:02.760Z,989.02
2023-05-16T00:44:04.482Z,988.97
2023-05-16T00:45:06.227Z,989.04
2023-05-16T00:46:08.152Z,989.01
2023-05-16T00:47:09.658Z,989.07
2023-05-16T00:48:11.473Z,989
2023-05-16T00:49:13.140Z,989.09
2023-05-16T00:50:14.873Z,989.06
2023-05-16T00:51:16.607Z,989.03
2023-05-16T00:52:18.326Z,989.03
2023-05-16T00:53:20.217Z,989.04
2023-05-16T00:54:21.843Z,989.04
2023-05-16T00:55:23.567Z,989.05
2023-05-16T00:56:25.354Z,989.06
2023-05-16T00:57:26.984Z,988.99
2023-05-16T00:58:28.732Z,989.04
2023-05-16T00:59:30.454Z,989.06
2023-05-16T01:00:32.208Z,989.05
2023-05-16T01:01:33.977Z,989.09
2023-05-16T01:02:35.812Z,989.03
2023-05-16T01:03:37.474Z,989.01
2023-05-16T01:04:39.126Z,989.09
2023-05-16T01:05:41.185Z,989.09
2023-05-16T01:06:42.609Z,989.04
2023-05-16T01:07:44.340Z,989.01
2023-05-16T01:08:46.058Z,989.09
2023-05-16T01:09:47.805Z,989.08
2023-05-16T01:10:49.544Z,989.07
2023-05-16T01:11:51.267Z,989.07
2023-05-16T01:12:53.021Z,989.08
2023-05-16T01:13:54.725Z,989.08
2023-05-16T01:14:56.491Z,989.14
2023-05-16T01:15:58.286Z,989.11
2023-05-16T01:16:59.938Z,989.14
2023-05-16T01:18:01.729Z,989.17
2023-05-16T01:19:03.443Z,989.14
2023-05-16T01:20:05.258Z,989.19
2023-05-16T01:21:06.855Z,989.15
2023-05-16T01:22:08.604Z,989.17
2023-05-16T01:23:10.353Z,989.18
2023-05-16T01:24:12.119Z,989.17
2023-05-16T01:25:13.808Z,989.17
2023-05-16T01:26:15.540Z,989.18
2023-05-16T01:27:17.278Z,989.22
2023-05-16T01:28:19.017Z,989.16
2023-05-16T01:29:20.739Z,989.17
2023-05-16T01:30:22.478Z,989.18
2023-05-16T01:31:24.320Z,989.17
2023-05-16T01:32:25.998Z,989.21
2023-05-16T01:33:27.695Z,989.21
2023-05-16T01:34:29.426Z,989.22
2023-05-16T01:35:31.141Z,989.28
2023-05-16T01:36:32.869Z,989.25
2023-05-16T01:37:34.596Z,989.26
2023-05-16T01:38:36.358Z,989.26
2023-05-16T01:39:38.096Z,989.28
2023-05-16T01:40:39.834Z,989.27
2023-05-16T01:41:41.562Z,989.25
2023-05-16T01:42:43.284Z,989.23
2023-05-16T01:43:45.026Z,989.22
2023-05-16T01:44:46.784Z,989.13
2023-05-16T01:45:48.484Z,989.16
2023-05-16T01:46:50.292Z,989.15
2023-05-16T01:47:51.980Z,989.13
2023-05-16T01:48:53.692Z,989.12
2023-05-16T01:49:55.421Z,989.08
2023-05-16T01:50:57.166Z,989.12
2023-05-16T01:51:58.908Z,989.1
2023-05-16T01:53:00.775Z,989.08
2023-05-16T01:54:02.388Z,989.09
2023-05-16T01:55:04.100Z,989.07
2023-05-16T01:56:05.822Z,989.09
2023-05-16T01:57:07.544Z,989.06
2023-05-16T01:58:09.335Z,989.12
2023-05-16T01:59:11.058Z,989.07
2023-05-16T02:00:12.773Z,989.12
2023-05-16T02:01:14.557Z,989.12
2023-05-16T02:02:16.233Z,989.16
2023-05-16T02:03:18.045Z,989.2
2023-05-16T02:04:19.712Z,989.2
2023-05-16T02:05:21.495Z,989.2
2023-05-16T02:06:23.165Z,989.15
2023-05-16T02:07:25.064Z,989.19
2023-05-16T02:08:26.646Z,989.19
2023-05-16T02:09:28.381Z,989.24
2023-05-16T02:10:30.118Z,989.23
2023-05-16T02:11:31.873Z,989.23
2023-05-16T02:12:33.585Z,989.27
2023-05-16T02:13:35.300Z,989.2
2023-05-16T02:14:37.042Z,989.25
2023-05-16T02:15:38.774Z,989.26
2023-05-16T02:16:40.678Z,989.31
2023-05-16T02:17:42.322Z,989.25
2023-05-16T02:18:44.025Z,989.29
2023-05-16T02:19:45.706Z,989.26
2023-05-16T02:20:47.457Z,989.28
2023-05-16T02:21:49.208Z,989.28
2023-05-16T02:22:50.929Z,989.3
2023-05-16T02:23:52.731Z,989.26
2023-05-16T02:24:54.413Z,989.3
2023-05-16T02:25:56.123Z,989.24
2023-05-16T02:26:57.879Z,989.3
2023-05-16T02:27:59.575Z,989.27
2023-05-16T02:29:01.325Z,989.27
2023-05-16T02:30:03.129Z,989.3
2023-05-16T02:31:04.833Z,989.3
2023-05-16T02:32:06.521Z,989.31
2023-05-16T02:33:08.291Z,989.32
2023-05-16T02:34:10.007Z,989.22
2023-05-16T02:35:11.737Z,989.29
2023-05-16T02:36:13.463Z,989.28
2023-05-16T02:37:15.264Z,989.32
2023-05-16T02:38:16.921Z,989.33
2023-05-16T02:39:18.660Z,989.38
2023-05-16T02:40:20.431Z,989.37
2023-05-16T02:41:22.513Z,989.37
2023-05-16T02:42:23.860Z,989.37
2023-05-16T02:43:25.632Z,989.4
2023-05-16T02:44:27.331Z,989.38
2023-05-16T02:45:29.227Z,989.43
2023-05-16T02:46:30.956Z,989.39
2023-05-16T02:47:32.605Z,989.42
2023-05-16T02:48:34.272Z,989.39
2023-05-16T02:49:36.003Z,989.38
2023-05-16T02:50:37.757Z,989.44
2023-05-16T02:51:39.501Z,989.43
2023-05-16T02:52:41.219Z,989.41
2023-05-16T02:53:42.948Z,989.42
2023-05-16T02:54:46.865Z,989.41
2023-05-16T02:55:46.417Z,989.48
2023-05-16T02:56:48.141Z,989.45
2023-05-16T02:57:49.881Z,989.44
2023-05-16T02:58:51.741Z,989.44
2023-05-16T02:59:53.345Z,989.45
2023-05-16T03:00:55.080Z,989.46
2023-05-16T03:01:56.857Z,989.5
2023-05-16T03:02:58.595Z,989.5
2023-05-16T03:04:00.399Z,989.52
2023-05-16T03:05:02.116Z,989.53
2023-05-16T03:06:03.759Z,989.52
2023-05-16T03:07:05.490Z,989.52
2023-05-16T03:08:07.203Z,989.5
2023-05-16T03:09:08.941Z,989.48
2023-05-16T03:10:10.670Z,989.48
2023-05-16T03:11:12.403Z,989.47
2023-05-16T03:12:14.150Z,989.5
2023-05-16T03:13:15.891Z,989.49
2023-05-16T03:14:17.622Z,989.46
2023-05-16T03:15:19.350Z,989.51
2023-05-16T03:16:21.267Z,989.48
2023-05-16T03:17:22.865Z,989.47
2023-05-16T03:18:24.549Z,989.52
2023-05-16T03:19:26.347Z,989.51
2023-05-16T03:20:28.035Z,989.48
2023-05-16T03:21:29.743Z,989.52
2023-05-16T03:22:31.520Z,989.53
2023-05-16T03:23:33.235Z,989.53
2023-05-16T03:24:34.975Z,989.55
2023-05-16T03:25:36.704Z,989.54
2023-05-16T03:26:38.407Z,989.57
2023-05-16T03:27:40.170Z,989.55
2023-05-16T03:28:41.887Z,989.57
2023-05-16T03:29:43.645Z,989.57
2023-05-16T03:30:45.361Z,989.56
2023-05-16T03:31:47.153Z,989.55
2023-05-16T03:32:48.959Z,989.56
2023-05-16T03:33:50.571Z,989.58
2023-05-16T03:34:52.300Z,989.58
2023-05-16T03:35:54.042Z,989.57
2023-05-16T03:36:55.763Z,989.53
2023-05-16T03:37:57.516Z,989.56
2023-05-16T03:38:59.240Z,989.51
2023-05-16T03:40:00.979Z,989.61
2023-05-16T03:41:02.714Z,989.57
2023-05-16T03:42:04.463Z,989.59
2023-05-16T03:43:06.167Z,989.58
2023-05-16T03:44:07.888Z,989.59
2023-05-16T03:45:09.723Z,989.59
2023-05-16T03:46:11.464Z,989.58
2023-05-16T03:47:13.149Z,989.59
2023-05-16T03:48:14.910Z,989.56
2023-05-16T03:49:16.571Z,989.56
2023-05-16T03:50:18.297Z,989.59
2023-05-16T03:51:20.039Z,989.6
2023-05-16T03:52:21.776Z,989.62
2023-05-16T03:53:23.535Z,989.61
2023-05-16T03:54:25.258Z,989.58
2023-05-16T03:55:27.273Z,989.6
2023-05-16T03:56:28.723Z,989.61
2023-05-16T03:57:30.440Z,989.62
2023-05-16T03:58:32.183Z,989.63
2023-05-16T03:59:33.906Z,989.62
2023-05-16T04:00:35.656Z,989.61
2023-05-16T04:01:37.455Z,989.58
2023-05-16T04:02:39.297Z,989.59
2023-05-16T04:03:40.867Z,989.59
2023-05-16T04:04:42.581Z,989.59
2023-05-16T04:05:44.370Z,989.55
2023-05-16T04:06:46.050Z,989.64
2023-05-16T04:07:47.794Z,989.63
2023-05-16T04:08:49.525Z,989.64
2023-05-16T04:09:51.236Z,989.69
2023-05-16T04:10:52.993Z,989.66
2023-05-16T04:11:54.715Z,989.68
2023-05-16T04:12:56.459Z,989.69
2023-05-16T04:13:58.459Z,989.73
2023-05-16T04:14:59.948Z,989.7
2023-05-16T04:16:01.641Z,989.68
2023-05-16T04:17:03.471Z,989.71
2023-05-16T04:18:05.269Z,989.66
2023-05-16T04:19:07.007Z,989.71
2023-05-16T04:20:08.591Z,989.69
2023-05-16T04:21:10.331Z,989.67
2023-05-16T04:22:12.060Z,989.72
2023-05-16T04:23:13.787Z,989.73
2023-05-16T04:24:15.531Z,989.75
2023-05-16T04:25:17.276Z,989.72
2023-05-16T04:26:19.032Z,989.78
2023-05-16T04:27:20.732Z,989.73
2023-05-16T04:28:22.465Z,989.76
2023-05-16T04:29:24.189Z,989.71
2023-05-16T04:30:25.927Z,989.83
2023-05-16T04:31:27.725Z,989.85
2023-05-16T04:32:29.470Z,989.81
2023-05-16T04:33:31.149Z,989.79
2023-05-16T04:34:32.892Z,989.84
2023-05-16T04:35:34.628Z,989.81
2023-05-16T04:36:36.336Z,989.87
2023-05-16T04:37:38.108Z,989.9
2023-05-16T04:38:39.815Z,989.92
2023-05-16T04:39:41.589Z,989.84
2023-05-16T04:40:43.269Z,989.97
2023-05-16T04:41:49.104Z,989.97
2023-05-16T04:42:51.910Z,989.99
2023-05-16T04:43:53.829Z,990.02
2023-05-16T04:44:55.516Z,989.98
2023-05-16T04:45:57.119Z,990
2023-05-16T04:46:58.880Z,990.01
2023-05-16T04:48:00.558Z,990.03
2023-05-16T04:49:02.278Z,990.05
2023-05-16T04:50:04.042Z,990.05
2023-05-16T04:51:05.763Z,990.05
2023-05-16T04:52:07.469Z,990
2023-05-16T04:53:09.228Z,990.03
2023-05-16T04:54:10.960Z,990.07
2023-05-16T04:55:12.672Z,990.02
2023-05-16T04:56:14.440Z,990.04
2023-05-16T04:57:16.153Z,990.05
2023-05-16T04:58:18.041Z,990.01
2023-05-16T04:59:19.637Z,990.03
2023-05-16T05:00:21.380Z,989.97
2023-05-16T05:01:23.141Z,990.01
2023-05-16T05:02:24.923Z,990.01
2023-05-16T05:03:26.525Z,990.02
2023-05-16T05:04:28.323Z,990.03
2023-05-16T05:05:30.384Z,990.03
2023-05-16T05:06:31.780Z,990.01
2023-05-16T05:07:33.514Z,989.99
2023-05-16T05:08:35.242Z,989.93
2023-05-16T05:09:37.002Z,990
2023-05-16T05:10:38.698Z,990.03
2023-05-16T05:11:40.374Z,990.08
2023-05-16T05:12:42.189Z,990.06
2023-05-16T05:13:43.894Z,990.02
2023-05-16T05:14:45.649Z,990.07
2023-05-16T05:15:47.345Z,990.07
2023-05-16T05:16:49.231Z,990.1
2023-05-16T05:17:50.863Z,990.07
2023-05-16T05:18:52.808Z,990.17
2023-05-16T05:19:54.303Z,990.13
2023-05-16T05:20:56.024Z,990.17
2023-05-16T05:21:57.769Z,990.17
2023-05-16T05:22:59.476Z,990.2
2023-05-16T05:24:01.246Z,990.16
2023-05-16T05:25:02.968Z,990.21
2023-05-16T05:26:04.700Z,990.2
2023-05-16T05:27:06.409Z,990.21
2023-05-16T05:28:08.196Z,990.19
2023-05-16T05:29:09.889Z,990.24
2023-05-16T05:30:11.636Z,990.2
2023-05-16T05:31:13.512Z,990.17
2023-05-16T05:32:15.111Z,990.22
2023-05-16T05:33:16.934Z,990.24
2023-05-16T05:34:18.578Z,990.22
2023-05-16T05:35:20.320Z,990.23
2023-05-16T05:36:22.038Z,990.25
2023-05-16T05:37:23.778Z,990.27
2023-05-16T05:38:25.515Z,990.29
2023-05-16T05:39:27.243Z,990.26
2023-05-16T05:40:29.011Z,990.27
2023-05-16T05:41:30.716Z,990.29
2023-05-16T05:42:32.454Z,990.35
2023-05-16T05:43:34.173Z,990.3
2023-05-16T05:44:35.922Z,990.35
2023-05-16T05:45:37.702Z,990.34
2023-05-16T05:46:39.545Z,990.33
2023-05-16T05:47:41.189Z,990.34
2023-05-16T05:48:42.839Z,990.39
2023-05-16T05:49:44.595Z,990.38
2023-05-16T05:50:46.312Z,990.41
2023-05-16T05:51:48.072Z,990.42
2023-05-16T05:52:49.777Z,990.44
2023-05-16T05:53:51.527Z,990.43
2023-05-16T05:54:53.278Z,990.49
2023-05-16T05:55:54.999Z,990.47
2023-05-16T05:56:56.716Z,990.51
2023-05-16T05:57:58.525Z,990.49
2023-05-16T05:59:00.194Z,990.5
2023-05-16T06:00:02.073Z,990.48
2023-05-16T06:01:03.670Z,990.48
2023-05-16T06:02:05.438Z,990.58
2023-05-16T06:03:07.206Z,990.52
2023-05-16T06:04:08.867Z,990.59
2023-05-16T06:05:10.665Z,990.57
2023-05-16T06:06:12.337Z,990.65
2023-05-16T06:07:14.052Z,990.66
2023-05-16T06:08:15.777Z,990.65
2023-05-16T06:09:17.530Z,990.62
2023-05-16T06:10:19.282Z,990.64
2023-05-16T06:11:21.009Z,990.64
2023-05-16T06:12:22.732Z,990.63
2023-05-16T06:13:24.462Z,990.62
2023-05-16T06:14:26.210Z,990.65
2023-05-16T06:15:28.128Z,990.66
2023-05-16T06:16:29.702Z,990.62
2023-05-16T06:17:31.522Z,990.67
2023-05-16T06:18:33.194Z,990.68
2023-05-16T06:19:34.877Z,990.66
2023-05-16T06:20:36.587Z,990.68
2023-05-16T06:21:38.370Z,990.7
2023-05-16T06:22:40.252Z,990.77
2023-05-16T06:23:41.836Z,990.78
2023-05-16T06:24:43.564Z,990.77
2023-05-16T06:25:45.276Z,990.77
2023-05-16T06:26:47.253Z,990.8
2023-05-16T06:27:48.744Z,990.85
2023-05-16T06:28:50.490Z,990.83
2023-05-16T06:29:52.223Z,990.84
2023-05-16T06:30:54.001Z,990.89
2023-05-16T06:31:55.776Z,990.88
2023-05-16T06:32:57.495Z,990.89
2023-05-16T06:33:59.173Z,990.93
2023-05-16T06:35:00.931Z,990.89
2023-05-16T06:36:02.698Z,990.95
2023-05-16T06:37:04.398Z,990.9
2023-05-16T06:38:06.084Z,990.98
2023-05-16T06:39:07.818Z,990.95
2023-05-16T06:40:09.575Z,990.89
2023-05-16T06:41:11.344Z,990.93
2023-05-16T06:42:13.089Z,990.97
2023-05-16T06:43:14.953Z,991.02
2023-05-16T06:44:16.515Z,990.92
2023-05-16T06:45:18.249Z,990.95
2023-05-16T06:46:20.086Z,991.05
2023-05-16T06:47:21.702Z,991.03
2023-05-16T06:48:23.541Z,991
2023-05-16T06:49:25.179Z,990.98
2023-05-16T06:50:26.907Z,991.01
2023-05-16T06:51:28.627Z,991.03
2023-05-16T06:52:30.360Z,991
2023-05-16T06:53:32.109Z,991.01
2023-05-16T06:54:34.022Z,991.02
2023-05-16T06:55:35.633Z,990.93
2023-05-16T06:56:37.357Z,990.97
2023-05-16T06:57:39.065Z,991.03
2023-05-16T06:58:40.768Z,991.04
2023-05-16T06:59:42.589Z,991.09
2023-05-16T07:00:44.255Z,991.01
2023-05-16T07:01:46.117Z,991.11
2023-05-16T07:02:47.793Z,991.04
2023-05-16T07:03:49.600Z,991.11
2023-05-16T07:04:51.188Z,991.09
2023-05-16T07:05:52.950Z,991.14
2023-05-16T07:06:54.650Z,991.15
2023-05-16T07:07:56.386Z,991.11
2023-05-16T07:08:58.105Z,991.18
2023-05-16T07:09:59.855Z,991.2
2023-05-16T07:11:01.566Z,991.19
2023-05-16T07:12:03.320Z,991.17
2023-05-16T07:13:05.136Z,991.19
2023-05-16T07:14:06.788Z,991.23
2023-05-16T07:15:08.511Z,991.19
2023-05-16T07:16:10.425Z,991.27
2023-05-16T07:17:12.021Z,991.29
2023-05-16T07:18:13.800Z,991.29
2023-05-16T07:19:15.505Z,991.37
2023-05-16T07:20:17.170Z,991.38
2023-05-16T07:21:18.924Z,991.39
2023-05-16T07:22:20.668Z,991.42
2023-05-16T07:23:22.485Z,991.45
2023-05-16T07:24:24.150Z,991.43
2023-05-16T07:25:26.077Z,991.43
2023-05-16T07:26:27.583Z,991.46
2023-05-16T07:27:29.349Z,991.51
2023-05-16T07:28:31.045Z,991.44
2023-05-16T07:29:32.799Z,991.61
2023-05-16T07:30:34.534Z,991.6
2023-05-16T07:31:36.323Z,991.58
2023-05-16T07:32:38.139Z,991.59
2023-05-16T07:33:39.726Z,991.64
2023-05-16T07:34:41.445Z,991.61
2023-05-16T07:35:43.206Z,991.65
2023-05-16T07:36:44.957Z,991.66
2023-05-16T07:37:46.668Z,991.68
2023-05-16T07:38:48.429Z,991.74
2023-05-16T07:39:50.126Z,991.76
2023-05-16T07:40:51.964Z,991.79
2023-05-16T07:41:53.603Z,991.81
2023-05-16T07:42:55.336Z,991.86
2023-05-16T07:43:57.075Z,991.89
2023-05-16T07:44:58.876Z,991.85
2023-05-16T07:46:00.512Z,991.84
2023-05-16T07:47:02.458Z,991.88
2023-05-16T07:48:04.090Z,991.97
2023-05-16T07:49:05.729Z,991.92
2023-05-16T07:50:07.475Z,991.98
2023-05-16T07:51:09.208Z,991.97
2023-05-16T07:52:10.953Z,991.95
2023-05-16T07:53:12.673Z,991.96
2023-05-16T07:54:14.484Z,992.02
2023-05-16T07:55:16.147Z,991.98
2023-05-16T07:56:17.890Z,991.99
2023-05-16T07:57:19.617Z,991.95
2023-05-16T07:58:21.354Z,991.97
2023-05-16T07:59:23.137Z,991.96
2023-05-16T08:00:24.838Z,991.99
2023-05-16T08:01:26.542Z,992.06
2023-05-16T08:02:28.467Z,992.04
2023-05-16T08:03:30.123Z,992.03
2023-05-16T08:04:31.742Z,992.05
2023-05-16T08:05:33.521Z,992.14
2023-05-16T08:06:35.207Z,992.13
2023-05-16T08:07:36.967Z,992.09
2023-05-16T08:08:38.698Z,992.13
2023-05-16T08:09:40.420Z,992.07
2023-05-16T08:10:42.166Z,992.11
2023-05-16T08:11:43.876Z,992.23
2023-05-16T08:12:45.631Z,992.2
2023-05-16T08:13:47.340Z,992.21
2023-05-16T08:14:49.089Z,992.21
2023-05-16T08:15:50.838Z,992.25
2023-05-16T08:16:52.548Z,992.26
2023-05-16T08:17:54.402Z,992.24
2023-05-16T08:18:56.053Z,992.23
2023-05-16T08:19:57.761Z,992.26
2023-05-16T08:20:59.557Z,992.25
2023-05-16T08:22:01.224Z,992.25
2023-05-16T08:23:02.946Z,992.28
2023-05-16T08:24:04.688Z,992.27
2023-05-16T08:25:06.448Z,992.31
2023-05-16T08:26:08.169Z,992.32
2023-05-16T08:27:09.921Z,992.3
2023-05-16T08:28:11.619Z,992.35
2023-05-16T08:29:13.369Z,992.38
2023-05-16T08:30:15.112Z,992.34
2023-05-16T08:31:16.892Z,992.35
2023-05-16T08:32:18.571Z,992.34
2023-05-16T08:33:20.597Z,992.39
2023-05-16T08:34:22.029Z,992.38
2023-05-16T08:35:23.765Z,992.38
2023-05-16T08:36:25.485Z,992.37
2023-05-16T08:37:27.281Z,992.4
2023-05-16T08:38:28.985Z,992.4
2023-05-16T08:39:30.715Z,992.41
2023-05-16T08:40:32.445Z,992.38
2023-05-16T08:41:34.209Z,992.41
2023-05-16T08:42:35.897Z,992.39
2023-05-16T08:43:37.646Z,992.34
2023-05-16T08:44:39.390Z,992.43
2023-05-16T08:45:41.121Z,992.44
2023-05-16T08:46:42.897Z,992.45
2023-05-16T08:47:44.621Z,992.49
2023-05-16T08:48:46.314Z,992.43
2023-05-16T08:49:48.062Z,992.46
2023-05-16T08:50:49.854Z,992.47
2023-05-16T08:51:51.532Z,992.52
2023-05-16T08:52:53.299Z,992.54
2023-05-16T08:53:55.034Z,992.53
2023-05-16T08:55:09.262Z,992.54
2023-05-16T08:55:58.439Z,992.51
2023-05-16T08:57:00.187Z,992.55
2023-05-16T08:58:01.956Z,992.57
2023-05-16T08:59:03.650Z,992.55
2023-05-16T09:00:05.380Z,992.56
2023-05-16T09:01:07.309Z,992.55
2023-05-16T09:02:08.851Z,992.56
2023-05-16T09:03:10.645Z,992.63
2023-05-16T09:04:12.379Z,992.55
2023-05-16T09:05:14.065Z,992.6
2023-05-16T09:06:15.790Z,992.64
2023-05-16T09:07:17.510Z,992.65
2023-05-16T09:08:19.280Z,992.65
2023-05-16T09:09:20.989Z,992.66
2023-05-16T09:10:22.714Z,992.62
2023-05-16T09:11:24.456Z,992.61
2023-05-16T09:12:26.250Z,992.67
2023-05-16T09:13:27.916Z,992.71
2023-05-16T09:14:29.659Z,992.7
2023-05-16T09:15:31.396Z,992.7
2023-05-16T09:16:33.165Z,992.71
2023-05-16T09:17:40.112Z,992.7
2023-05-16T09:18:36.689Z,992.69
2023-05-16T09:19:38.482Z,992.7
2023-05-16T09:20:40.053Z,992.7
2023-05-16T09:21:41.796Z,992.69
2023-05-16T09:22:43.544Z,992.64
2023-05-16T09:23:45.268Z,992.72
2023-05-16T09:24:46.998Z,992.73
2023-05-16T09:25:48.739Z,992.7
2023-05-16T09:26:50.477Z,992.71
2023-05-16T09:27:52.213Z,992.73
2023-05-16T09:28:53.922Z,992.73
2023-05-16T09:29:55.673Z,992.73
2023-05-16T09:30:57.431Z,992.78
2023-05-16T09:31:59.133Z,992.79
2023-05-16T09:33:00.966Z,992.77
2023-05-16T09:34:02.614Z,992.8
2023-05-16T09:35:04.332Z,992.78
2023-05-16T09:36:06.096Z,992.79
2023-05-16T09:37:07.781Z,992.8
2023-05-16T09:38:09.551Z,992.79
2023-05-16T09:39:11.307Z,992.77
2023-05-16T09:40:13.017Z,992.72
2023-05-16T09:41:14.745Z,992.64
2023-05-16T09:42:16.550Z,992.77
2023-05-16T09:43:18.667Z,992.8
2023-05-16T09:44:19.976Z,992.74
2023-05-16T09:45:21.669Z,992.77
2023-05-16T09:46:23.430Z,992.82
2023-05-16T09:47:25.167Z,992.78
2023-05-16T09:48:26.879Z,992.81
2023-05-16T09:49:28.628Z,992.82
2023-05-16T09:50:30.371Z,992.86
2023-05-16T09:51:32.267Z,992.81
2023-05-16T09:52:33.827Z,992.82
2023-05-16T09:53:35.567Z,992.83
2023-05-16T09:54:37.285Z,992.84
2023-05-16T09:55:39.034Z,992.84
2023-05-16T09:56:40.751Z,992.88
2023-05-16T09:57:42.508Z,992.81
2023-05-16T09:58:44.226Z,992.84
2023-05-16T09:59:45.966Z,992.87
2023-05-16T10:00:47.713Z,992.8
2023-05-16T10:01:49.630Z,992.81
2023-05-16T10:02:51.291Z,992.82
2023-05-16T10:03:53.114Z,992.81
2023-05-16T10:04:54.630Z,992.75
2023-05-16T10:05:56.362Z,992.82
2023-05-16T10:06:58.094Z,992.81
2023-05-16T10:07:59.835Z,992.85
2023-05-16T10:09:03.044Z,992.82
2023-05-16T10:10:03.284Z,992.81
2023-05-16T10:11:05.089Z,992.73
2023-05-16T10:12:06.769Z,992.8
2023-05-16T10:13:08.513Z,992.81
2023-05-16T10:14:10.242Z,992.83
2023-05-16T10:15:11.996Z,992.85
2023-05-16T10:16:13.824Z,992.89
2023-05-16T10:17:15.461Z,992.88
2023-05-16T10:18:17.270Z,992.87
2023-05-16T10:19:18.982Z,992.86
2023-05-16T10:20:20.641Z,992.86
2023-05-16T10:21:22.400Z,992.92
2023-05-16T10:22:24.150Z,992.9
2023-05-16T10:23:25.850Z,992.89
2023-05-16T10:24:27.593Z,992.91
2023-05-16T10:25:29.879Z,992.94
2023-05-16T10:26:31.068Z,992.92
2023-05-16T10:27:32.784Z,992.9
2023-05-16T10:28:34.514Z,992.98
2023-05-16T10:29:46.441Z,992.93
2023-05-16T10:30:37.988Z,992.92
2023-05-16T10:31:39.753Z,992.93
2023-05-16T10:32:42.956Z,992.92
2023-05-16T10:33:43.213Z,992.97
2023-05-16T10:34:44.999Z,992.97
2023-05-16T10:35:46.702Z,992.94
2023-05-16T10:36:48.386Z,993.03
2023-05-16T10:37:50.119Z,992.99
2023-05-16T10:38:51.856Z,992.98
2023-05-16T10:39:53.604Z,992.98
2023-05-16T10:40:55.323Z,992.98
2023-05-16T10:41:57.126Z,993
2023-05-16T10:42:58.847Z,992.97
2023-05-16T10:44:00.517Z,992.99
2023-05-16T10:45:05.985Z,993
2023-05-16T10:46:04.145Z,993.03
2023-05-16T10:47:05.773Z,993
2023-05-16T10:48:07.547Z,992.97
2023-05-16T10:49:09.212Z,993
2023-05-16T10:50:34.850Z,993.07
2023-05-16T10:51:36.332Z,993.03
2023-05-16T10:52:38.136Z,993.08
2023-05-16T10:53:39.787Z,993.04
2023-05-16T10:54:41.519Z,993.06
2023-05-16T10:55:43.218Z,993.09
2023-05-16T10:56:44.948Z,993.06
2023-05-16T10:57:46.699Z,993.05
2023-05-16T10:58:48.400Z,993.05
2023-05-16T10:59:50.172Z,993.06
2023-05-16T11:00:51.890Z,993.04
2023-05-16T11:01:53.746Z,993.07
2023-05-16T11:02:55.373Z,993.09
2023-05-16T11:03:57.423Z,993.07
2023-05-16T11:04:58.763Z,993.06
2023-05-16T11:06:00.496Z,993.04
2023-05-16T11:07:02.239Z,993.07
2023-05-16T11:08:03.976Z,993.04
2023-05-16T11:09:05.711Z,993.09
2023-05-16T11:10:07.429Z,993.06
2023-05-16T11:11:09.172Z,993.07
2023-05-16T11:12:11.064Z,993.07
2023-05-16T11:13:12.633Z,993.05
2023-05-16T11:14:14.366Z,993.04
2023-05-16T11:15:16.111Z,993.04
2023-05-16T11:16:17.850Z,993.01
2023-05-16T11:17:19.664Z,992.99
2023-05-16T11:18:21.437Z,993.01
2023-05-16T11:19:23.207Z,993
2023-05-16T11:20:24.762Z,992.99
2023-05-16T11:21:26.494Z,992.96
2023-05-16T11:22:28.240Z,992.98
2023-05-16T11:23:29.977Z,992.98
2023-05-16T11:24:31.761Z,993
2023-05-16T11:25:33.432Z,992.95
2023-05-16T11:26:35.181Z,993.02
2023-05-16T11:27:37.082Z,993.03
2023-05-16T11:28:38.658Z,992.98
2023-05-16T11:29:40.372Z,993.02
2023-05-16T11:30:42.115Z,992.99
2023-05-16T11:31:43.912Z,993.04
2023-05-16T11:32:45.634Z,992.98
2023-05-16T11:33:47.298Z,992.98
2023-05-16T11:34:49.052Z,992.9
2023-05-16T11:35:51.246Z,992.9
2023-05-16T11:36:52.496Z,992.9
2023-05-16T11:37:54.270Z,992.92
2023-05-16T11:38:55.972Z,992.91
2023-05-16T11:39:57.814Z,992.83
2023-05-16T11:40:59.440Z,992.86
2023-05-16T11:42:01.180Z,992.78
2023-05-16T11:43:04.626Z,992.84
2023-05-16T11:44:04.655Z,992.77
2023-05-16T11:45:06.395Z,992.8
2023-05-16T11:46:08.195Z,992.84
2023-05-16T11:47:09.966Z,992.76
2023-05-16T11:48:16.586Z,992.72
2023-05-16T11:49:13.334Z,992.76
2023-05-16T11:50:15.100Z,992.82
2023-05-16T11:51:16.773Z,992.73
2023-05-16T11:52:18.648Z,992.8
2023-05-16T11:53:20.264Z,992.77
2023-05-16T11:54:21.990Z,992.81
2023-05-16T11:55:33.207Z,992.77
2023-05-16T11:56:25.454Z,992.74
2023-05-16T11:57:27.197Z,992.77
2023-05-16T11:58:28.924Z,992.83
2023-05-16T11:59:30.703Z,992.83
2023-05-16T12:00:32.397Z,992.81
2023-05-16T12:01:34.330Z,992.83
2023-05-16T12:02:36.069Z,992.78
2023-05-16T12:03:38.800Z,992.75
2023-05-16T12:04:39.557Z,992.84
2023-05-16T12:05:40.951Z,992.81
2023-05-16T12:06:42.639Z,992.8
2023-05-16T12:07:44.368Z,992.79
2023-05-16T12:08:46.080Z,992.76
2023-05-16T12:09:48.019Z,992.77
2023-05-16T12:10:49.570Z,992.76
2023-05-16T12:11:51.280Z,992.78
2023-05-16T12:12:53.049Z,992.8
2023-05-16T12:13:54.784Z,992.76
2023-05-16T12:14:56.514Z,992.75
2023-05-16T12:15:58.260Z,992.75
2023-05-16T12:17:00.028Z,992.74
2023-05-16T12:18:01.769Z,992.75
2023-05-16T12:19:03.488Z,992.72
2023-05-16T12:20:05.191Z,992.63
2023-05-16T12:21:06.948Z,992.65
2023-05-16T12:22:08.636Z,992.68
2023-05-16T12:23:10.373Z,992.62
2023-05-16T12:24:12.136Z,992.59
2023-05-16T12:25:13.848Z,992.61
2023-05-16T12:26:15.808Z,992.63
2023-05-16T12:27:17.329Z,992.52
2023-05-16T12:28:19.049Z,992.57
2023-05-16T12:29:20.808Z,992.6
2023-05-16T12:30:22.539Z,992.59
2023-05-16T12:31:31.747Z,992.45
2023-05-16T12:32:26.190Z,992.49
2023-05-16T12:33:27.809Z,992.46
2023-05-16T12:34:29.441Z,992.54
2023-05-16T12:35:31.221Z,992.63
2023-05-16T12:36:32.926Z,992.58
2023-05-16T12:37:34.663Z,992.59
2023-05-16T12:38:36.387Z,992.6
2023-05-16T12:39:38.114Z,992.61
2023-05-16T12:40:39.860Z,992.63
2023-05-16T12:41:41.578Z,992.63
2023-05-16T12:42:43.330Z,992.59
2023-05-16T12:43:45.080Z,992.63
2023-05-16T12:44:46.827Z,992.63
2023-05-16T12:45:48.582Z,992.69
2023-05-16T12:46:50.444Z,992.69
2023-05-16T12:47:52.039Z,992.72
2023-05-16T12:48:53.731Z,992.67
2023-05-16T12:49:55.477Z,992.68
2023-05-16T12:50:57.268Z,992.72
2023-05-16T12:51:59.114Z,992.76
2023-05-16T12:53:00.680Z,992.68
2023-05-16T12:54:10.084Z,992.69
2023-05-16T12:55:04.309Z,992.72